sensor_id;sensor_type;location;lat;lon;timestamp;temperature;humidity
9446;DHT22;4761;49.490;10.908;2022-08-30T00:00:11;23.70;57.90
9446;DHT22;4761;49.490;10.908;2022-08-30T00:02:56;23.70;57.90
9446;DHT22;4761;49.490;10.908;2022-08-30T00:05:22;23.70;57.90
9446;DHT22;4761;49.490;10.908;2022-08-30T00:07:48;23.70;57.90
9446;DHT22;4761;49.490;10.908;2022-08-30T00:10:15;23.70;57.90
9446;DHT22;4761;49.490;10.908;2022-08-30T00:12:40;23.70;57.80
9446;DHT22;4761;49.490;10.908;2022-08-30T00:15:09;23.70;57.80
9446;DHT22;4761;49.490;10.908;2022-08-30T00:17:36;23.70;57.80
9446;DHT22;4761;49.490;10.908;2022-08-30T00:20:05;23.70;57.80
9446;DHT22;4761;49.490;10.908;2022-08-30T00:22:31;23.70;57.70
9446;DHT22;4761;49.490;10.908;2022-08-30T00:24:57;23.70;57.70
9446;DHT22;4761;49.490;10.908;2022-08-30T00:27:25;23.70;57.70
9446;DHT22;4761;49.490;10.908;2022-08-30T00:29:51;23.60;57.60
9446;DHT22;4761;49.490;10.908;2022-08-30T00:32:17;23.60;57.60
9446;DHT22;4761;49.490;10.908;2022-08-30T00:34:49;23.60;57.60
9446;DHT22;4761;49.490;10.908;2022-08-30T00:37:15;23.60;57.60
9446;DHT22;4761;49.490;10.908;2022-08-30T00:39:41;23.70;57.60
9446;DHT22;4761;49.490;10.908;2022-08-30T00:42:08;23.70;57.10
9446;DHT22;4761;49.490;10.908;2022-08-30T00:44:34;23.60;57.50
9446;DHT22;4761;49.490;10.908;2022-08-30T00:47:00;23.60;57.60
9446;DHT22;4761;49.490;10.908;2022-08-30T00:49:25;23.60;57.50
9446;DHT22;4761;49.490;10.908;2022-08-30T00:51:53;23.60;57.50
9446;DHT22;4761;49.490;10.908;2022-08-30T00:54:18;23.60;57.50
9446;DHT22;4761;49.490;10.908;2022-08-30T00:56:45;23.60;57.50
9446;DHT22;4761;49.490;10.908;2022-08-30T00:59:12;23.60;57.50
9446;DHT22;4761;49.490;10.908;2022-08-30T01:01:38;23.60;57.50
9446;DHT22;4761;49.490;10.908;2022-08-30T01:04:05;23.60;57.50
9446;DHT22;4761;49.490;10.908;2022-08-30T01:06:33;23.60;57.40
9446;DHT22;4761;49.490;10.908;2022-08-30T01:09:00;23.60;57.40
9446;DHT22;4761;49.490;10.908;2022-08-30T01:11:26;23.60;57.30
9446;DHT22;4761;49.490;10.908;2022-08-30T01:13:53;23.60;57.30
9446;DHT22;4761;49.490;10.908;2022-08-30T01:16:21;23.60;57.30
9446;DHT22;4761;49.490;10.908;2022-08-30T01:18:48;23.60;57.20
9446;DHT22;4761;49.490;10.908;2022-08-30T01:23:56;23.60;57.10
9446;DHT22;4761;49.490;10.908;2022-08-30T01:26:23;23.60;57.20
9446;DHT22;4761;49.490;10.908;2022-08-30T01:28:53;23.60;57.10
9446;DHT22;4761;49.490;10.908;2022-08-30T01:31:19;23.60;57.10
9446;DHT22;4761;49.490;10.908;2022-08-30T01:33:45;23.60;57.10
9446;DHT22;4761;49.490;10.908;2022-08-30T01:36:12;23.60;57.10
9446;DHT22;4761;49.490;10.908;2022-08-30T01:38:46;23.60;57.10
9446;DHT22;4761;49.490;10.908;2022-08-30T01:41:16;23.60;57.10
9446;DHT22;4761;49.490;10.908;2022-08-30T01:43:43;23.60;57.00
9446;DHT22;4761;49.490;10.908;2022-08-30T01:46:10;23.50;56.90
9446;DHT22;4761;49.490;10.908;2022-08-30T01:48:37;23.50;57.00
9446;DHT22;4761;49.490;10.908;2022-08-30T01:51:03;23.50;56.90
9446;DHT22;4761;49.490;10.908;2022-08-30T01:53:30;23.50;56.90
9446;DHT22;4761;49.490;10.908;2022-08-30T01:55:56;23.50;56.90
9446;DHT22;4761;49.490;10.908;2022-08-30T01:58:21;23.50;56.80
9446;DHT22;4761;49.490;10.908;2022-08-30T02:00:48;23.50;57.40
9446;DHT22;4761;49.490;10.908;2022-08-30T02:03:14;23.50;56.80
9446;DHT22;4761;49.490;10.908;2022-08-30T02:05:40;23.50;56.90
9446;DHT22;4761;49.490;10.908;2022-08-30T02:08:06;23.50;56.80
9446;DHT22;4761;49.490;10.908;2022-08-30T02:10:31;23.50;56.80
9446;DHT22;4761;49.490;10.908;2022-08-30T02:12:57;23.50;56.80
9446;DHT22;4761;49.490;10.908;2022-08-30T02:15:23;23.50;56.80
9446;DHT22;4761;49.490;10.908;2022-08-30T02:17:49;23.50;56.80
9446;DHT22;4761;49.490;10.908;2022-08-30T02:20:14;23.50;56.80
9446;DHT22;4761;49.490;10.908;2022-08-30T02:22:40;23.50;56.80
9446;DHT22;4761;49.490;10.908;2022-08-30T02:25:06;23.50;56.80
9446;DHT22;4761;49.490;10.908;2022-08-30T02:27:32;23.40;56.70
9446;DHT22;4761;49.490;10.908;2022-08-30T02:29:58;23.50;56.80
9446;DHT22;4761;49.490;10.908;2022-08-30T02:32:23;23.50;56.80
9446;DHT22;4761;49.490;10.908;2022-08-30T02:34:49;23.40;56.70
9446;DHT22;4761;49.490;10.908;2022-08-30T02:37:14;23.40;56.70
9446;DHT22;4761;49.490;10.908;2022-08-30T02:39:40;23.40;56.70
9446;DHT22;4761;49.490;10.908;2022-08-30T02:42:06;23.40;56.70
9446;DHT22;4761;49.490;10.908;2022-08-30T02:44:31;23.40;56.70
9446;DHT22;4761;49.490;10.908;2022-08-30T02:46:57;23.40;56.70
9446;DHT22;4761;49.490;10.908;2022-08-30T02:49:22;23.40;56.60
9446;DHT22;4761;49.490;10.908;2022-08-30T02:51:48;23.40;56.70
9446;DHT22;4761;49.490;10.908;2022-08-30T02:54:14;23.40;56.70
9446;DHT22;4761;49.490;10.908;2022-08-30T02:56:45;23.40;56.70
9446;DHT22;4761;49.490;10.908;2022-08-30T02:59:11;23.40;56.60
9446;DHT22;4761;49.490;10.908;2022-08-30T03:01:37;23.40;56.70
9446;DHT22;4761;49.490;10.908;2022-08-30T03:04:03;23.40;56.60
9446;DHT22;4761;49.490;10.908;2022-08-30T03:06:29;23.40;56.60
9446;DHT22;4761;49.490;10.908;2022-08-30T03:08:55;23.40;56.60
9446;DHT22;4761;49.490;10.908;2022-08-30T03:11:21;23.40;56.60
9446;DHT22;4761;49.490;10.908;2022-08-30T03:13:47;23.40;56.50
9446;DHT22;4761;49.490;10.908;2022-08-30T03:16:13;23.40;56.50
9446;DHT22;4761;49.490;10.908;2022-08-30T03:18:40;23.40;56.40
9446;DHT22;4761;49.490;10.908;2022-08-30T03:21:12;23.30;56.40
9446;DHT22;4761;49.490;10.908;2022-08-30T03:23:39;23.30;56.30
9446;DHT22;4761;49.490;10.908;2022-08-30T03:26:06;23.40;56.40
9446;DHT22;4761;49.490;10.908;2022-08-30T03:28:32;23.40;56.40
9446;DHT22;4761;49.490;10.908;2022-08-30T03:30:58;23.30;56.30
9446;DHT22;4761;49.490;10.908;2022-08-30T03:33:23;23.30;56.30
9446;DHT22;4761;49.490;10.908;2022-08-30T03:35:50;23.30;56.30
9446;DHT22;4761;49.490;10.908;2022-08-30T03:38:16;23.30;56.30
9446;DHT22;4761;49.490;10.908;2022-08-30T03:40:42;23.30;56.30
9446;DHT22;4761;49.490;10.908;2022-08-30T03:43:07;23.30;56.20
9446;DHT22;4761;49.490;10.908;2022-08-30T03:45:33;23.30;56.20
9446;DHT22;4761;49.490;10.908;2022-08-30T03:47:59;23.30;56.20
9446;DHT22;4761;49.490;10.908;2022-08-30T03:50:27;23.30;56.10
9446;DHT22;4761;49.490;10.908;2022-08-30T03:52:53;23.30;56.10
9446;DHT22;4761;49.490;10.908;2022-08-30T03:55:19;23.30;56.10
9446;DHT22;4761;49.490;10.908;2022-08-30T03:57:45;23.30;56.10
9446;DHT22;4761;49.490;10.908;2022-08-30T04:00:13;23.20;56.00
9446;DHT22;4761;49.490;10.908;2022-08-30T04:02:40;23.30;56.00
9446;DHT22;4761;49.490;10.908;2022-08-30T04:05:06;23.30;55.90
9446;DHT22;4761;49.490;10.908;2022-08-30T04:07:32;23.30;55.80
9446;DHT22;4761;49.490;10.908;2022-08-30T04:09:58;23.30;55.70
9446;DHT22;4761;49.490;10.908;2022-08-30T04:12:25;23.30;55.70
9446;DHT22;4761;49.490;10.908;2022-08-30T04:14:51;23.40;55.70
9446;DHT22;4761;49.490;10.908;2022-08-30T04:17:17;23.30;55.60
9446;DHT22;4761;49.490;10.908;2022-08-30T04:19:42;23.30;55.70
9446;DHT22;4761;49.490;10.908;2022-08-30T04:22:08;23.30;55.70
9446;DHT22;4761;49.490;10.908;2022-08-30T04:24:33;23.30;55.60
9446;DHT22;4761;49.490;10.908;2022-08-30T04:26:59;23.30;55.60
9446;DHT22;4761;49.490;10.908;2022-08-30T04:29:25;23.30;55.50
9446;DHT22;4761;49.490;10.908;2022-08-30T04:31:51;23.30;55.50
9446;DHT22;4761;49.490;10.908;2022-08-30T04:34:17;23.30;55.50
9446;DHT22;4761;49.490;10.908;2022-08-30T04:36:42;23.20;55.40
9446;DHT22;4761;49.490;10.908;2022-08-30T04:39:08;23.30;55.40
9446;DHT22;4761;49.490;10.908;2022-08-30T04:41:35;23.30;55.40
9446;DHT22;4761;49.490;10.908;2022-08-30T04:44:01;23.20;55.30
9446;DHT22;4761;49.490;10.908;2022-08-30T04:46:28;23.30;55.40
9446;DHT22;4761;49.490;10.908;2022-08-30T04:48:54;23.20;55.30
9446;DHT22;4761;49.490;10.908;2022-08-30T04:51:20;23.20;55.30
9446;DHT22;4761;49.490;10.908;2022-08-30T04:53:45;23.20;55.20
9446;DHT22;4761;49.490;10.908;2022-08-30T04:56:13;23.30;55.30
9446;DHT22;4761;49.490;10.908;2022-08-30T04:58:46;23.20;55.20
9446;DHT22;4761;49.490;10.908;2022-08-30T05:01:34;23.20;55.30
9446;DHT22;4761;49.490;10.908;2022-08-30T05:04:00;23.20;55.30
9446;DHT22;4761;49.490;10.908;2022-08-30T05:06:27;23.30;55.40
9446;DHT22;4761;49.490;10.908;2022-08-30T05:08:55;23.20;55.30
9446;DHT22;4761;49.490;10.908;2022-08-30T05:11:22;23.20;55.30
9446;DHT22;4761;49.490;10.908;2022-08-30T05:13:47;23.20;55.30
9446;DHT22;4761;49.490;10.908;2022-08-30T05:16:14;23.20;55.30
9446;DHT22;4761;49.490;10.908;2022-08-30T05:18:43;23.20;55.30
9446;DHT22;4761;49.490;10.908;2022-08-30T05:21:12;23.20;55.90
9446;DHT22;4761;49.490;10.908;2022-08-30T05:23:39;23.20;55.30
9446;DHT22;4761;49.490;10.908;2022-08-30T05:26:07;23.20;55.30
9446;DHT22;4761;49.490;10.908;2022-08-30T05:28:34;23.20;55.40
9446;DHT22;4761;49.490;10.908;2022-08-30T05:31:00;23.20;55.40
9446;DHT22;4761;49.490;10.908;2022-08-30T05:33:26;23.20;55.40
9446;DHT22;4761;49.490;10.908;2022-08-30T05:35:51;23.30;55.50
9446;DHT22;4761;49.490;10.908;2022-08-30T05:38:17;23.30;55.10
9446;DHT22;4761;49.490;10.908;2022-08-30T05:40:43;23.10;54.60
9446;DHT22;4761;49.490;10.908;2022-08-30T05:43:09;23.10;54.80
9446;DHT22;4761;49.490;10.908;2022-08-30T05:45:36;23.10;54.90
9446;DHT22;4761;49.490;10.908;2022-08-30T05:48:02;23.10;54.90
9446;DHT22;4761;49.490;10.908;2022-08-30T05:50:28;23.10;55.00
9446;DHT22;4761;49.490;10.908;2022-08-30T05:52:54;23.20;55.30
9446;DHT22;4761;49.490;10.908;2022-08-30T05:55:20;23.20;55.40
9446;DHT22;4761;49.490;10.908;2022-08-30T05:57:45;23.30;55.50
9446;DHT22;4761;49.490;10.908;2022-08-30T06:00:13;23.40;56.20
9446;DHT22;4761;49.490;10.908;2022-08-30T06:02:40;23.40;55.50
9446;DHT22;4761;49.490;10.908;2022-08-30T06:05:07;23.40;55.50
9446;DHT22;4761;49.490;10.908;2022-08-30T06:07:33;23.40;55.40
9446;DHT22;4761;49.490;10.908;2022-08-30T06:09:59;23.50;55.40
9446;DHT22;4761;49.490;10.908;2022-08-30T06:12:24;23.50;55.20
9446;DHT22;4761;49.490;10.908;2022-08-30T06:14:50;23.50;55.10
9446;DHT22;4761;49.490;10.908;2022-08-30T06:17:15;23.60;55.00
9446;DHT22;4761;49.490;10.908;2022-08-30T06:19:41;23.60;54.90
9446;DHT22;4761;49.490;10.908;2022-08-30T06:22:07;23.60;54.80
9446;DHT22;4761;49.490;10.908;2022-08-30T06:24:32;23.70;54.80
9446;DHT22;4761;49.490;10.908;2022-08-30T06:27:00;23.70;54.60
9446;DHT22;4761;49.490;10.908;2022-08-30T06:29:26;23.70;54.50
9446;DHT22;4761;49.490;10.908;2022-08-30T06:31:51;23.80;54.40
9446;DHT22;4761;49.490;10.908;2022-08-30T06:34:17;23.80;54.40
9446;DHT22;4761;49.490;10.908;2022-08-30T06:36:43;23.80;54.30
9446;DHT22;4761;49.490;10.908;2022-08-30T06:39:09;23.80;54.30
9446;DHT22;4761;49.490;10.908;2022-08-30T06:41:36;23.80;54.20
9446;DHT22;4761;49.490;10.908;2022-08-30T06:44:04;23.90;54.20
9446;DHT22;4761;49.490;10.908;2022-08-30T06:46:33;23.90;54.10
9446;DHT22;4761;49.490;10.908;2022-08-30T06:48:59;23.90;54.10
9446;DHT22;4761;49.490;10.908;2022-08-30T06:51:27;23.90;54.10
9446;DHT22;4761;49.490;10.908;2022-08-30T06:53:54;24.00;54.10
9446;DHT22;4761;49.490;10.908;2022-08-30T06:56:20;24.00;54.10
9446;DHT22;4761;49.490;10.908;2022-08-30T06:58:45;24.00;54.10
9446;DHT22;4761;49.490;10.908;2022-08-30T07:01:14;24.00;54.10
9446;DHT22;4761;49.490;10.908;2022-08-30T07:03:39;24.00;54.00
9446;DHT22;4761;49.490;10.908;2022-08-30T07:06:06;24.00;54.10
9446;DHT22;4761;49.490;10.908;2022-08-30T07:08:31;24.00;54.00
9446;DHT22;4761;49.490;10.908;2022-08-30T07:10:57;24.10;54.10
9446;DHT22;4761;49.490;10.908;2022-08-30T07:13:23;24.10;54.10
9446;DHT22;4761;49.490;10.908;2022-08-30T07:15:49;24.10;54.00
9446;DHT22;4761;49.490;10.908;2022-08-30T07:18:15;24.10;54.00
9446;DHT22;4761;49.490;10.908;2022-08-30T07:21:06;24.10;54.00
9446;DHT22;4761;49.490;10.908;2022-08-30T07:23:32;24.20;54.00
9446;DHT22;4761;49.490;10.908;2022-08-30T07:25:57;24.20;54.00
9446;DHT22;4761;49.490;10.908;2022-08-30T07:28:23;24.20;54.00
9446;DHT22;4761;49.490;10.908;2022-08-30T07:30:48;24.20;54.00
9446;DHT22;4761;49.490;10.908;2022-08-30T07:33:14;24.20;54.00
9446;DHT22;4761;49.490;10.908;2022-08-30T07:35:39;24.20;54.00
9446;DHT22;4761;49.490;10.908;2022-08-30T07:38:05;24.30;54.50
9446;DHT22;4761;49.490;10.908;2022-08-30T07:40:31;24.50;54.40
9446;DHT22;4761;49.490;10.908;2022-08-30T07:42:56;24.50;54.40
9446;DHT22;4761;49.490;10.908;2022-08-30T07:45:23;24.50;54.50
9446;DHT22;4761;49.490;10.908;2022-08-30T07:47:48;24.40;54.60
9446;DHT22;4761;49.490;10.908;2022-08-30T07:50:14;24.40;54.80
9446;DHT22;4761;49.490;10.908;2022-08-30T07:52:40;24.40;55.10
9446;DHT22;4761;49.490;10.908;2022-08-30T07:55:06;24.30;55.20
9446;DHT22;4761;49.490;10.908;2022-08-30T07:57:31;24.30;55.30
9446;DHT22;4761;49.490;10.908;2022-08-30T07:59:59;24.20;55.50
9446;DHT22;4761;49.490;10.908;2022-08-30T08:02:25;24.20;55.60
9446;DHT22;4761;49.490;10.908;2022-08-30T08:04:50;24.20;55.70
9446;DHT22;4761;49.490;10.908;2022-08-30T08:07:16;24.20;55.80
9446;DHT22;4761;49.490;10.908;2022-08-30T08:09:42;24.20;56.00
9446;DHT22;4761;49.490;10.908;2022-08-30T08:12:08;24.20;56.00
9446;DHT22;4761;49.490;10.908;2022-08-30T08:14:34;24.20;56.00
9446;DHT22;4761;49.490;10.908;2022-08-30T08:16:59;24.20;56.00
9446;DHT22;4761;49.490;10.908;2022-08-30T08:19:25;24.20;56.00
9446;DHT22;4761;49.490;10.908;2022-08-30T08:21:51;24.20;56.00
9446;DHT22;4761;49.490;10.908;2022-08-30T08:24:22;24.20;56.10
9446;DHT22;4761;49.490;10.908;2022-08-30T08:26:47;24.20;56.10
9446;DHT22;4761;49.490;10.908;2022-08-30T08:29:13;24.20;56.20
9446;DHT22;4761;49.490;10.908;2022-08-30T08:31:39;24.20;56.80
9446;DHT22;4761;49.490;10.908;2022-08-30T08:34:06;24.20;56.00
9446;DHT22;4761;49.490;10.908;2022-08-30T08:36:32;24.20;55.90
9446;DHT22;4761;49.490;10.908;2022-08-30T08:38:59;24.20;55.80
9446;DHT22;4761;49.490;10.908;2022-08-30T08:44:49;24.30;55.60
9446;DHT22;4761;49.490;10.908;2022-08-30T08:47:24;24.30;55.70
9446;DHT22;4761;49.490;10.908;2022-08-30T08:49:53;24.30;55.80
9446;DHT22;4761;49.490;10.908;2022-08-30T08:52:49;24.30;55.80
9446;DHT22;4761;49.490;10.908;2022-08-30T08:55:39;24.40;56.00
9446;DHT22;4761;49.490;10.908;2022-08-30T08:58:07;24.40;56.20
9446;DHT22;4761;49.490;10.908;2022-08-30T09:00:39;24.30;56.20
9446;DHT22;4761;49.490;10.908;2022-08-30T09:03:05;24.40;56.40
9446;DHT22;4761;49.490;10.908;2022-08-30T09:05:35;24.40;56.40
9446;DHT22;4761;49.490;10.908;2022-08-30T09:08:06;24.40;56.40
9446;DHT22;4761;49.490;10.908;2022-08-30T09:10:33;24.40;56.50
9446;DHT22;4761;49.490;10.908;2022-08-30T09:13:00;24.40;56.60
9446;DHT22;4761;49.490;10.908;2022-08-30T09:15:30;24.40;56.60
9446;DHT22;4761;49.490;10.908;2022-08-30T09:18:03;24.40;56.50
9446;DHT22;4761;49.490;10.908;2022-08-30T09:22:58;24.50;56.20
9446;DHT22;4761;49.490;10.908;2022-08-30T09:25:29;24.50;56.10
9446;DHT22;4761;49.490;10.908;2022-08-30T09:28:12;24.60;56.20
9446;DHT22;4761;49.490;10.908;2022-08-30T09:31:18;24.60;56.20
9446;DHT22;4761;49.490;10.908;2022-08-30T09:36:41;24.50;56.20
9446;DHT22;4761;49.490;10.908;2022-08-30T09:41:45;24.50;56.40
9446;DHT22;4761;49.490;10.908;2022-08-30T09:44:20;24.40;56.50
9446;DHT22;4761;49.490;10.908;2022-08-30T09:46:55;24.50;56.70
9446;DHT22;4761;49.490;10.908;2022-08-30T09:52:13;24.60;57.70
9446;DHT22;4761;49.490;10.908;2022-08-30T09:55:06;24.60;57.20
9446;DHT22;4761;49.490;10.908;2022-08-30T09:57:49;24.60;57.50
9446;DHT22;4761;49.490;10.908;2022-08-30T10:00:22;24.60;57.70
9446;DHT22;4761;49.490;10.908;2022-08-30T10:03:12;24.70;57.80
9446;DHT22;4761;49.490;10.908;2022-08-30T10:09:16;24.80;58.70
9446;DHT22;4761;49.490;10.908;2022-08-30T10:14:25;24.90;59.00
9446;DHT22;4761;49.490;10.908;2022-08-30T10:22:33;25.20;59.10
9446;DHT22;4761;49.490;10.908;2022-08-30T10:25:06;25.30;59.10
9446;DHT22;4761;49.490;10.908;2022-08-30T10:27:40;25.40;59.30
9446;DHT22;4761;49.490;10.908;2022-08-30T10:30:10;25.40;59.50
9446;DHT22;4761;49.490;10.908;2022-08-30T10:32:47;25.40;59.50
9446;DHT22;4761;49.490;10.908;2022-08-30T10:35:27;25.40;59.60
9446;DHT22;4761;49.490;10.908;2022-08-30T10:38:04;25.40;59.60
9446;DHT22;4761;49.490;10.908;2022-08-30T10:40:36;25.40;59.60
9446;DHT22;4761;49.490;10.908;2022-08-30T10:43:36;25.50;59.50
9446;DHT22;4761;49.490;10.908;2022-08-30T10:46:13;25.50;59.50
9446;DHT22;4761;49.490;10.908;2022-08-30T10:48:43;25.50;59.00
9446;DHT22;4761;49.490;10.908;2022-08-30T10:51:25;25.40;59.50
9446;DHT22;4761;49.490;10.908;2022-08-30T10:53:56;25.40;59.80
9446;DHT22;4761;49.490;10.908;2022-08-30T10:56:24;25.40;60.10
9446;DHT22;4761;49.490;10.908;2022-08-30T10:58:51;25.30;60.00
9446;DHT22;4761;49.490;10.908;2022-08-30T11:04:24;25.30;60.00
9446;DHT22;4761;49.490;10.908;2022-08-30T11:07:09;25.30;59.40
9446;DHT22;4761;49.490;10.908;2022-08-30T11:14:51;25.30;59.40
9446;DHT22;4761;49.490;10.908;2022-08-30T11:19:51;25.20;59.40
9446;DHT22;4761;49.490;10.908;2022-08-30T11:25:45;25.30;59.40
9446;DHT22;4761;49.490;10.908;2022-08-30T11:28:02;25.20;59.20
9446;DHT22;4761;49.490;10.908;2022-08-30T11:35:39;25.30;58.80
9446;DHT22;4761;49.490;10.908;2022-08-30T11:52:10;25.40;58.40
9446;DHT22;4761;49.490;10.908;2022-08-30T11:57:34;25.20;54.80
9446;DHT22;4761;49.490;10.908;2022-08-30T12:00:09;25.10;52.90
9446;DHT22;4761;49.490;10.908;2022-08-30T12:02:47;25.00;51.80
9446;DHT22;4761;49.490;10.908;2022-08-30T12:05:49;25.00;51.30
9446;DHT22;4761;49.490;10.908;2022-08-30T12:10:56;25.00;50.40
9446;DHT22;4761;49.490;10.908;2022-08-30T12:26:32;25.10;48.60
9446;DHT22;4761;49.490;10.908;2022-08-30T12:34:19;25.10;48.30
9446;DHT22;4761;49.490;10.908;2022-08-30T12:36:52;25.10;48.00
9446;DHT22;4761;49.490;10.908;2022-08-30T12:39:23;25.10;48.20
9446;DHT22;4761;49.490;10.908;2022-08-30T12:41:49;25.10;49.00
9446;DHT22;4761;49.490;10.908;2022-08-30T12:44:23;25.10;48.70
9446;DHT22;4761;49.490;10.908;2022-08-30T12:46:56;25.10;48.50
9446;DHT22;4761;49.490;10.908;2022-08-30T12:49:24;25.10;48.10
9446;DHT22;4761;49.490;10.908;2022-08-30T12:51:51;25.10;48.50
9446;DHT22;4761;49.490;10.908;2022-08-30T12:54:21;25.10;48.30
9446;DHT22;4761;49.490;10.908;2022-08-30T12:57:08;25.10;48.00
9446;DHT22;4761;49.490;10.908;2022-08-30T12:59:43;25.10;48.00
9446;DHT22;4761;49.490;10.908;2022-08-30T13:02:17;25.10;48.60
9446;DHT22;4761;49.490;10.908;2022-08-30T13:04:44;25.10;48.90
9446;DHT22;4761;49.490;10.908;2022-08-30T13:07:33;25.20;49.40
9446;DHT22;4761;49.490;10.908;2022-08-30T13:10:16;25.30;48.80
9446;DHT22;4761;49.490;10.908;2022-08-30T13:12:59;25.40;49.00
9446;DHT22;4761;49.490;10.908;2022-08-30T13:15:32;25.40;49.10
9446;DHT22;4761;49.490;10.908;2022-08-30T13:18:24;25.50;49.20
9446;DHT22;4761;49.490;10.908;2022-08-30T13:23:50;25.60;48.90
9446;DHT22;4761;49.490;10.908;2022-08-30T13:26:16;25.60;50.10
9446;DHT22;4761;49.490;10.908;2022-08-30T13:28:54;25.60;50.30
9446;DHT22;4761;49.490;10.908;2022-08-30T13:31:20;25.60;49.80
9446;DHT22;4761;49.490;10.908;2022-08-30T13:33:46;25.60;49.90
9446;DHT22;4761;49.490;10.908;2022-08-30T13:36:13;25.70;49.50
9446;DHT22;4761;49.490;10.908;2022-08-30T13:38:39;25.70;49.50
9446;DHT22;4761;49.490;10.908;2022-08-30T13:41:05;25.80;49.30
9446;DHT22;4761;49.490;10.908;2022-08-30T13:43:31;25.80;49.50
9446;DHT22;4761;49.490;10.908;2022-08-30T13:45:56;25.80;49.90
9446;DHT22;4761;49.490;10.908;2022-08-30T13:48:23;25.80;50.10
9446;DHT22;4761;49.490;10.908;2022-08-30T13:50:49;25.80;50.40
9446;DHT22;4761;49.490;10.908;2022-08-30T13:53:15;25.80;49.50
9446;DHT22;4761;49.490;10.908;2022-08-30T13:55:42;25.80;50.10
9446;DHT22;4761;49.490;10.908;2022-08-30T13:58:08;25.90;50.50
9446;DHT22;4761;49.490;10.908;2022-08-30T14:00:34;25.90;50.10
9446;DHT22;4761;49.490;10.908;2022-08-30T14:03:00;25.90;50.40
9446;DHT22;4761;49.490;10.908;2022-08-30T14:05:29;25.90;50.30
9446;DHT22;4761;49.490;10.908;2022-08-30T14:07:56;26.00;50.30
9446;DHT22;4761;49.490;10.908;2022-08-30T14:10:25;26.00;50.30
9446;DHT22;4761;49.490;10.908;2022-08-30T14:12:51;26.00;50.50
9446;DHT22;4761;49.490;10.908;2022-08-30T14:15:17;26.00;50.60
9446;DHT22;4761;49.490;10.908;2022-08-30T14:17:43;26.00;51.10
9446;DHT22;4761;49.490;10.908;2022-08-30T14:20:10;26.00;50.50
9446;DHT22;4761;49.490;10.908;2022-08-30T14:22:35;26.00;50.60
9446;DHT22;4761;49.490;10.908;2022-08-30T14:25:01;26.00;50.40
9446;DHT22;4761;49.490;10.908;2022-08-30T14:27:27;25.90;50.60
9446;DHT22;4761;49.490;10.908;2022-08-30T14:29:53;25.90;50.50
9446;DHT22;4761;49.490;10.908;2022-08-30T14:32:18;25.90;50.60
9446;DHT22;4761;49.490;10.908;2022-08-30T14:34:44;25.80;50.60
9446;DHT22;4761;49.490;10.908;2022-08-30T14:37:10;25.80;50.00
9446;DHT22;4761;49.490;10.908;2022-08-30T14:39:36;25.80;49.80
9446;DHT22;4761;49.490;10.908;2022-08-30T14:42:01;25.80;49.50
9446;DHT22;4761;49.490;10.908;2022-08-30T14:44:27;25.80;49.70
9446;DHT22;4761;49.490;10.908;2022-08-30T14:46:54;25.80;49.20
9446;DHT22;4761;49.490;10.908;2022-08-30T14:49:20;25.80;49.50
9446;DHT22;4761;49.490;10.908;2022-08-30T14:51:47;25.70;49.70
9446;DHT22;4761;49.490;10.908;2022-08-30T14:54:14;25.70;49.70
9446;DHT22;4761;49.490;10.908;2022-08-30T14:56:40;25.70;49.70
9446;DHT22;4761;49.490;10.908;2022-08-30T14:59:06;25.60;49.80
9446;DHT22;4761;49.490;10.908;2022-08-30T15:01:32;25.60;49.60
9446;DHT22;4761;49.490;10.908;2022-08-30T15:03:58;25.60;49.70
9446;DHT22;4761;49.490;10.908;2022-08-30T15:06:25;25.60;49.70
9446;DHT22;4761;49.490;10.908;2022-08-30T15:08:51;25.60;49.70
9446;DHT22;4761;49.490;10.908;2022-08-30T15:11:18;25.60;49.50
9446;DHT22;4761;49.490;10.908;2022-08-30T15:13:45;25.60;49.50
9446;DHT22;4761;49.490;10.908;2022-08-30T15:16:13;25.50;49.70
9446;DHT22;4761;49.490;10.908;2022-08-30T15:18:39;25.60;49.70
9446;DHT22;4761;49.490;10.908;2022-08-30T15:21:05;25.50;49.50
9446;DHT22;4761;49.490;10.908;2022-08-30T15:23:31;25.50;49.50
9446;DHT22;4761;49.490;10.908;2022-08-30T15:25:56;25.50;49.60
9446;DHT22;4761;49.490;10.908;2022-08-30T15:28:22;25.50;49.60
9446;DHT22;4761;49.490;10.908;2022-08-30T15:30:47;25.50;49.50
9446;DHT22;4761;49.490;10.908;2022-08-30T15:33:13;25.50;49.40
9446;DHT22;4761;49.490;10.908;2022-08-30T15:35:38;25.40;49.20
9446;DHT22;4761;49.490;10.908;2022-08-30T15:38:04;25.50;49.10
9446;DHT22;4761;49.490;10.908;2022-08-30T15:40:31;25.50;49.20
9446;DHT22;4761;49.490;10.908;2022-08-30T15:42:57;25.50;49.00
9446;DHT22;4761;49.490;10.908;2022-08-30T15:45:22;25.50;48.90
9446;DHT22;4761;49.490;10.908;2022-08-30T15:47:48;25.40;48.20
9446;DHT22;4761;49.490;10.908;2022-08-30T15:50:13;25.40;48.40
9446;DHT22;4761;49.490;10.908;2022-08-30T15:52:40;25.40;48.20
9446;DHT22;4761;49.490;10.908;2022-08-30T15:55:06;25.40;48.20
9446;DHT22;4761;49.490;10.908;2022-08-30T15:57:31;25.40;48.20
9446;DHT22;4761;49.490;10.908;2022-08-30T15:59:57;25.40;48.20
9446;DHT22;4761;49.490;10.908;2022-08-30T16:02:22;25.40;48.20
9446;DHT22;4761;49.490;10.908;2022-08-30T16:04:48;25.40;48.00
9446;DHT22;4761;49.490;10.908;2022-08-30T16:07:13;25.40;48.00
9446;DHT22;4761;49.490;10.908;2022-08-30T16:09:39;25.40;48.10
9446;DHT22;4761;49.490;10.908;2022-08-30T16:12:06;25.40;48.00
9446;DHT22;4761;49.490;10.908;2022-08-30T16:14:33;25.40;48.00
9446;DHT22;4761;49.490;10.908;2022-08-30T16:16:58;25.40;47.90
9446;DHT22;4761;49.490;10.908;2022-08-30T16:19:24;25.40;48.10
9446;DHT22;4761;49.490;10.908;2022-08-30T16:21:50;25.40;47.90
9446;DHT22;4761;49.490;10.908;2022-08-30T16:24:16;25.40;48.00
9446;DHT22;4761;49.490;10.908;2022-08-30T16:26:43;25.40;48.30
9446;DHT22;4761;49.490;10.908;2022-08-30T16:29:10;25.40;48.00
9446;DHT22;4761;49.490;10.908;2022-08-30T16:31:36;25.40;48.20
9446;DHT22;4761;49.490;10.908;2022-08-30T16:34:03;25.40;48.20
9446;DHT22;4761;49.490;10.908;2022-08-30T16:36:29;25.40;48.10
9446;DHT22;4761;49.490;10.908;2022-08-30T16:38:55;25.40;48.00
9446;DHT22;4761;49.490;10.908;2022-08-30T16:41:21;25.30;48.00
9446;DHT22;4761;49.490;10.908;2022-08-30T16:43:48;25.30;47.90
9446;DHT22;4761;49.490;10.908;2022-08-30T16:46:16;25.30;47.80
9446;DHT22;4761;49.490;10.908;2022-08-30T16:48:43;25.30;47.60
9446;DHT22;4761;49.490;10.908;2022-08-30T16:51:13;25.40;47.50
9446;DHT22;4761;49.490;10.908;2022-08-30T16:53:39;25.30;47.40
9446;DHT22;4761;49.490;10.908;2022-08-30T16:56:08;25.30;47.50
9446;DHT22;4761;49.490;10.908;2022-08-30T16:58:34;25.30;47.40
9446;DHT22;4761;49.490;10.908;2022-08-30T17:01:00;25.30;47.50
9446;DHT22;4761;49.490;10.908;2022-08-30T17:03:26;25.30;47.30
9446;DHT22;4761;49.490;10.908;2022-08-30T17:05:51;25.30;47.40
9446;DHT22;4761;49.490;10.908;2022-08-30T17:08:17;25.30;47.20
9446;DHT22;4761;49.490;10.908;2022-08-30T17:10:43;25.30;47.10
9446;DHT22;4761;49.490;10.908;2022-08-30T17:13:08;25.30;47.00
9446;DHT22;4761;49.490;10.908;2022-08-30T17:15:34;25.30;46.90
9446;DHT22;4761;49.490;10.908;2022-08-30T17:18:00;25.30;46.70